Time;durP1;ratioP1;P1;durP2;ratioP2;P2;SDS_P1;SDS_P2;PMS_P1;PMS_P2;Temp;Humidity;BMP_temperature;BMP_pressure;BME280_temperature;BME280_humidity;BME280_pressure;Samples;Min_cycle;Max_cycle;Signal;HPM_P1;HPM_P2
2023/05/24 00:00:22;;;;;;;6.53;2.25;;;12.10;97.40;;;;;;5036193;28;20128;-61
2023/05/24 00:02:49;;;;;;;7.78;2.60;;;12.10;97.30;;;;;;5036252;28;20061;-60
2023/05/24 00:05:17;;;;;;;7.80;2.80;;;12.10;97.40;;;;;;5036483;28;20046;-61
2023/05/24 00:07:44;;;;;;;9.25;2.95;;;12.20;97.70;;;;;;5035918;28;20033;-60
2023/05/24 00:10:11;;;;;;;9.10;2.70;;;12.20;97.10;;;;;;5035477;28;20051;-61
2023/05/24 00:12:38;;;;;;;8.52;2.42;;;12.20;97.40;;;;;;5035752;28;20069;-61
2023/05/24 00:15:05;;;;;;;9.75;2.83;;;12.30;97.00;;;;;;5035735;28;20065;-61
2023/05/24 00:17:33;;;;;;;8.73;3.45;;;12.30;97.20;;;;;;5035796;28;20043;-60
2023/05/24 00:20:00;;;;;;;10.75;3.53;;;12.30;97.50;;;;;;5035810;28;20434;-60
2023/05/24 00:22:27;;;;;;;11.52;3.60;;;12.30;97.90;;;;;;5035733;28;20041;-61
2023/05/24 00:24:54;;;;;;;15.93;4.40;;;12.30;98.10;;;;;;5035443;28;20041;-61
2023/05/24 00:27:20;;;;;;;11.88;4.18;;;12.30;98.20;;;;;;5035778;28;20422;-60
2023/05/24 00:29:47;;;;;;;9.77;3.80;;;12.30;98.10;;;;;;5035237;28;20041;-61
2023/05/24 00:32:14;;;;;;;10.38;4.10;;;12.30;98.20;;;;;;5035576;28;20044;-61
2023/05/24 00:34:41;;;;;;;9.30;3.63;;;12.40;98.50;;;;;;5033939;28;20491;-61
2023/05/24 00:37:11;;;;;;;12.27;3.78;;;12.40;98.50;;;;;;5033758;28;20072;-61
2023/05/24 00:39:38;;;;;;;12.40;3.67;;;12.40;98.50;;;;;;5034466;28;20488;-60
2023/05/24 00:42:05;;;;;;;9.23;3.95;;;12.50;98.30;;;;;;5033958;28;20042;-61
2023/05/24 00:44:32;;;;;;;9.82;3.50;;;12.40;98.20;;;;;;5034028;28;20111;-60
2023/05/24 00:46:59;;;;;;;10.43;3.50;;;12.50;98.40;;;;;;5034054;28;20045;-61
2023/05/24 00:49:26;;;;;;;10.15;4.03;;;12.50;98.50;;;;;;5033595;28;20084;-60
2023/05/24 00:51:53;;;;;;;10.90;3.65;;;12.50;98.70;;;;;;5034108;28;20069;-60
2023/05/24 00:54:20;;;;;;;12.80;3.83;;;12.50;98.50;;;;;;5035070;28;20045;-60
2023/05/24 00:56:47;;;;;;;9.00;3.28;;;12.50;98.30;;;;;;5034784;28;20034;-60
2023/05/24 00:59:14;;;;;;;8.52;2.80;;;12.50;98.50;;;;;;5033438;28;20052;-61
2023/05/24 01:01:40;;;;;;;9.43;2.60;;;12.50;98.00;;;;;;5034874;28;20049;-59
2023/05/24 01:04:07;;;;;;;7.40;2.38;;;12.60;97.00;;;;;;5033641;28;20472;-60
2023/05/24 01:06:35;;;;;;;8.38;2.20;;;12.60;96.70;;;;;;5034946;28;20038;-61
2023/05/24 01:09:02;;;;;;;8.35;2.30;;;12.60;96.70;;;;;;5033245;28;20463;-60
2023/05/24 01:11:29;;;;;;;7.28;2.30;;;12.70;96.70;;;;;;5034480;28;20451;-61
2023/05/24 01:13:56;;;;;;;10.05;3.15;;;12.70;96.40;;;;;;5033338;28;20045;-59
2023/05/24 01:16:24;;;;;;;5.70;2.17;;;12.70;96.40;;;;;;5033578;28;20052;-60
2023/05/24 01:18:51;;;;;;;6.45;2.10;;;12.70;96.50;;;;;;5034616;28;20046;-61
2023/05/24 01:21:18;;;;;;;7.88;2.05;;;12.70;96.40;;;;;;5034148;28;20056;-61
2023/05/24 01:23:45;;;;;;;10.20;2.35;;;12.70;96.70;;;;;;5033644;28;20046;-60
2023/05/24 01:26:12;;;;;;;6.72;2.33;;;12.70;96.60;;;;;;5033112;28;20033;-61
2023/05/24 01:28:38;;;;;;;7.68;2.65;;;12.60;96.60;;;;;;5032807;28;20047;-60
2023/05/24 01:31:05;;;;;;;9.35;2.40;;;12.50;96.80;;;;;;5032895;28;20037;-60
2023/05/24 01:33:32;;;;;;;7.65;2.97;;;12.50;96.70;;;;;;5034215;28;20451;-61
2023/05/24 01:35:59;;;;;;;12.02;3.03;;;12.40;96.70;;;;;;5032651;28;20041;-60
2023/05/24 01:38:26;;;;;;;9.32;2.78;;;12.30;96.80;;;;;;5034568;28;20049;-59
2023/05/24 01:40:52;;;;;;;8.80;2.60;;;12.30;96.90;;;;;;5034189;28;20045;-61
2023/05/24 01:43:20;;;;;;;7.65;2.28;;;12.20;97.00;;;;;;5032715;28;20045;-60
2023/05/24 01:45:47;;;;;;;8.63;2.78;;;12.20;97.00;;;;;;5034486;28;20033;-61
2023/05/24 01:48:17;;;;;;;6.53;2.40;;;12.10;97.40;;;;;;5034286;28;20042;-60
2023/05/24 01:50:44;;;;;;;8.25;2.25;;;12.10;97.30;;;;;;5033200;28;20107;-61
2023/05/24 01:53:11;;;;;;;10.57;2.28;;;12.10;97.10;;;;;;5032959;28;20045;-59
2023/05/24 01:55:38;;;;;;;6.45;2.45;;;12.10;97.30;;;;;;5032745;28;20045;-59
2023/05/24 01:58:05;;;;;;;9.00;2.95;;;12.10;97.70;;;;;;5032918;28;20045;-60
2023/05/24 02:00:31;;;;;;;9.82;2.40;;;12.00;97.70;;;;;;5032856;28;20041;-59
2023/05/24 02:02:58;;;;;;;9.00;2.58;;;12.00;97.60;;;;;;5032904;28;20046;-60
2023/05/24 02:05:25;;;;;;;6.78;2.28;;;11.90;97.60;;;;;;5034010;28;20046;-61
2023/05/24 02:07:54;;;;;;;8.57;2.45;;;11.90;97.40;;;;;;5032705;28;20037;-60
2023/05/24 02:10:22;;;;;;;7.10;2.40;;;11.80;97.30;;;;;;5032178;28;20049;-60
2023/05/24 02:12:49;;;;;;;5.00;2.13;;;11.80;97.30;;;;;;5033765;28;20045;-57
2023/05/24 02:15:16;;;;;;;4.65;1.85;;;11.80;97.20;;;;;;5032265;28;20041;-60
2023/05/24 02:17:42;;;;;;;7.57;2.03;;;11.80;97.30;;;;;;5032476;28;20045;-60
2023/05/24 02:20:09;;;;;;;5.55;1.90;;;11.70;97.20;;;;;;5033206;28;20046;-60
2023/05/24 02:22:37;;;;;;;6.65;2.08;;;11.70;97.40;;;;;;5032425;28;20091;-61
2023/05/24 02:25:04;;;;;;;7.80;2.03;;;11.70;97.50;;;;;;5033802;28;20046;-60
2023/05/24 02:27:30;;;;;;;5.72;2.33;;;11.60;97.40;;;;;;5032283;28;20045;-60
2023/05/24 02:29:57;;;;;;;6.18;2.05;;;11.60;97.30;;;;;;5033318;28;20037;-60
2023/05/24 02:32:24;;;;;;;6.20;2.42;;;11.60;97.40;;;;;;5032259;28;20038;-61
2023/05/24 02:34:51;;;;;;;6.30;2.05;;;11.60;97.30;;;;;;5034067;28;20041;-60
2023/05/24 02:37:19;;;;;;;5.53;2.30;;;11.60;97.30;;;;;;5037342;28;20488;-59
2023/05/24 02:39:46;;;;;;;6.68;2.33;;;11.60;97.50;;;;;;5037853;28;20122;-59
2023/05/24 02:42:13;;;;;;;9.35;2.13;;;11.60;97.50;;;;;;5037400;28;20103;-60
2023/05/24 02:44:41;;;;;;;8.25;2.55;;;11.50;97.70;;;;;;5035862;28;20041;-60
2023/05/24 02:47:08;;;;;;;5.60;1.98;;;11.50;97.90;;;;;;5037082;28;20029;-59
2023/05/24 02:49:35;;;;;;;7.40;3.08;;;11.40;98.20;;;;;;5037484;28;20056;-60
2023/05/24 02:52:02;;;;;;;8.25;2.20;;;11.30;98.50;;;;;;5037224;28;20037;-60
2023/05/24 02:54:29;;;;;;;6.70;2.60;;;11.30;98.70;;;;;;5036334;28;20064;-60
2023/05/24 02:56:56;;;;;;;10.75;2.80;;;11.20;99.10;;;;;;5035820;28;20437;-60
2023/05/24 02:59:23;;;;;;;6.55;2.22;;;11.10;99.20;;;;;;5035654;28;20162;-60
2023/05/24 03:01:50;;;;;;;9.65;2.67;;;11.10;99.30;;;;;;5035874;28;20045;-57
2023/05/24 03:04:17;;;;;;;10.13;3.03;;;11.10;99.30;;;;;;5035522;28;20045;-60
2023/05/24 03:06:44;;;;;;;6.72;2.60;;;11.10;99.30;;;;;;5035480;28;20041;-59
2023/05/24 03:09:11;;;;;;;7.47;2.55;;;11.10;99.30;;;;;;5035991;28;20046;-60
2023/05/24 03:11:38;;;;;;;9.10;2.35;;;11.10;99.30;;;;;;5035412;28;20045;-59
2023/05/24 03:14:05;;;;;;;11.57;2.58;;;11.10;99.30;;;;;;5035495;28;20132;-61
2023/05/24 03:16:32;;;;;;;8.18;2.60;;;11.00;99.30;;;;;;5035314;28;20045;-59
2023/05/24 03:18:59;;;;;;;8.23;2.42;;;11.00;99.40;;;;;;5035441;28;20045;-60
2023/05/24 03:21:26;;;;;;;8.25;2.60;;;11.00;99.50;;;;;;5036992;28;20045;-60
2023/05/24 03:23:53;;;;;;;9.23;2.40;;;10.90;99.60;;;;;;5036492;28;20481;-60
2023/05/24 03:26:20;;;;;;;6.35;2.40;;;10.90;99.70;;;;;;5034910;28;20396;-58
2023/05/24 03:28:49;;;;;;;8.32;2.78;;;10.90;99.90;;;;;;5035469;28;20497;-60
2023/05/24 03:31:19;;;;;;;8.63;2.88;;;10.80;99.90;;;;;;5035194;28;20500;-58
2023/05/24 03:33:47;;;;;;;8.77;2.90;;;10.70;99.90;;;;;;5036742;28;20469;-60
2023/05/24 03:36:14;;;;;;;8.80;2.80;;;10.70;99.90;;;;;;5035250;28;20044;-60
2023/05/24 03:38:41;;;;;;;11.70;2.95;;;10.70;99.90;;;;;;5035509;28;20049;-59
2023/05/24 03:41:08;;;;;;;8.95;2.38;;;10.70;99.90;;;;;;5036289;28;20041;-60
2023/05/24 03:43:34;;;;;;;6.53;2.63;;;10.70;99.90;;;;;;5035226;28;20507;-60
2023/05/24 03:46:06;;;;;;;5.28;2.50;;;10.70;99.90;;;;;;5035099;28;20065;-61
2023/05/24 03:48:32;;;;;;;6.57;2.58;;;10.60;99.90;;;;;;5034562;28;20041;-60
2023/05/24 03:50:59;;;;;;;9.43;3.00;;;10.70;99.90;;;;;;5035318;28;20038;-59
2023/05/24 03:53:26;;;;;;;7.68;3.20;;;10.60;99.90;;;;;;5034883;28;20418;-60
2023/05/24 03:55:53;;;;;;;10.57;3.13;;;10.70;99.90;;;;;;5034761;28;20048;-60
2023/05/24 03:58:21;;;;;;;10.43;2.55;;;10.60;99.90;;;;;;5035145;28;20125;-60
2023/05/24 04:00:49;;;;;;;7.57;2.92;;;10.60;99.90;;;;;;5035039;28;20096;-60
2023/05/24 04:03:18;;;;;;;6.47;2.78;;;10.60;99.90;;;;;;5035837;28;20038;-60
2023/05/24 04:05:46;;;;;;;10.73;2.85;;;10.50;99.90;;;;;;5034825;28;20041;-60
2023/05/24 04:08:13;;;;;;;6.50;2.70;;;10.50;99.90;;;;;;5034789;28;20052;-58
2023/05/24 04:10:40;;;;;;;8.32;3.00;;;10.50;99.90;;;;;;5034548;28;20075;-60
2023/05/24 04:13:10;;;;;;;11.65;3.53;;;10.60;99.90;;;;;;5034448;28;20100;-57
2023/05/24 04:15:36;;;;;;;7.22;2.97;;;10.50;99.90;;;;;;5036045;28;20068;-60
2023/05/24 04:18:04;;;;;;;12.10;3.38;;;10.50;99.90;;;;;;5034471;28;20045;-59
2023/05/24 04:20:33;;;;;;;7.13;2.80;;;10.50;99.90;;;;;;5034255;28;20053;-59
2023/05/24 04:23:00;;;;;;;9.77;3.17;;;10.50;99.90;;;;;;5034324;28;20055;-58
2023/05/24 04:25:26;;;;;;;10.82;3.03;;;10.40;99.90;;;;;;5034192;28;20440;-57
2023/05/24 04:27:54;;;;;;;10.45;3.33;;;10.40;99.90;;;;;;5034918;28;20045;-60
2023/05/24 04:30:24;;;;;;;8.00;3.05;;;10.40;99.90;;;;;;5034702;28;20041;-60
2023/05/24 04:32:51;;;;;;;8.07;2.78;;;10.40;99.90;;;;;;5035571;28;20499;-59
2023/05/24 04:35:18;;;;;;;9.88;3.10;;;10.40;99.90;;;;;;5035975;28;20049;-59
2023/05/24 04:37:47;;;;;;;11.23;2.95;;;10.50;99.90;;;;;;5034282;28;20049;-59
2023/05/24 04:40:21;;;;;;;8.45;3.22;;;10.50;99.90;;;;;;5034452;28;20399;-60
2023/05/24 04:42:48;;;;;;;10.05;2.83;;;10.50;99.90;;;;;;5035189;28;20168;-59
2023/05/24 04:45:15;;;;;;;8.98;3.40;;;10.60;99.90;;;;;;5035217;28;20044;-57
2023/05/24 04:47:42;;;;;;;13.55;3.50;;;10.70;99.90;;;;;;5034908;28;20156;-58
2023/05/24 04:50:09;;;;;;;12.32;3.53;;;10.90;99.90;;;;;;5035212;28;20048;-59
2023/05/24 04:52:36;;;;;;;8.57;3.28;;;10.90;99.90;;;;;;5035132;28;20040;-59
2023/05/24 04:55:03;;;;;;;12.35;4.03;;;11.10;99.90;;;;;;5035477;28;20048;-60
2023/05/24 04:57:30;;;;;;;13.25;3.60;;;11.20;99.90;;;;;;5035073;28;20087;-57
2023/05/24 04:59:56;;;;;;;12.48;3.65;;;11.30;99.90;;;;;;5034428;28;20041;-60
2023/05/24 05:02:25;;;;;;;10.93;3.63;;;11.40;99.90;;;;;;5035035;28;20045;-60
2023/05/24 05:04:52;;;;;;;13.98;3.90;;;11.50;99.90;;;;;;5034859;28;20080;-60
2023/05/24 05:07:19;;;;;;;11.07;3.45;;;11.70;99.90;;;;;;5034771;28;20037;-60
2023/05/24 05:09:46;;;;;;;11.80;3.70;;;11.80;99.90;;;;;;5034626;28;20481;-61
2023/05/24 05:12:13;;;;;;;9.18;3.50;;;11.90;99.90;;;;;;5034861;28;20105;-59
2023/05/24 05:14:39;;;;;;;11.20;3.72;;;12.00;99.90;;;;;;5035126;28;20462;-59
2023/05/24 05:17:06;;;;;;;18.30;5.90;;;12.10;99.90;;;;;;5034443;28;20049;-60
2023/05/24 05:19:33;;;;;;;9.45;3.90;;;12.20;99.90;;;;;;5032996;28;20140;-60
2023/05/24 05:22:00;;;;;;;12.45;4.10;;;12.30;99.90;;;;;;5034406;28;20042;-60
2023/05/24 05:24:27;;;;;;;11.80;3.85;;;12.40;99.90;;;;;;5034780;28;20044;-59
2023/05/24 05:26:54;;;;;;;14.68;4.30;;;12.60;99.90;;;;;;5034237;28;20045;-60
2023/05/24 05:29:21;;;;;;;11.10;4.03;;;12.70;99.90;;;;;;5034928;28;20044;-61
2023/05/24 05:31:50;;;;;;;12.57;4.68;;;12.80;99.90;;;;;;5034136;28;20060;-57
2023/05/24 05:34:18;;;;;;;14.45;4.57;;;12.90;99.90;;;;;;5034942;28;20372;-59
2023/05/24 05:36:45;;;;;;;12.85;4.28;;;13.00;99.90;;;;;;5034091;28;20080;-60
2023/05/24 05:39:12;;;;;;;12.30;4.90;;;13.10;99.90;;;;;;5034782;28;20068;-60
2023/05/24 05:41:42;;;;;;;12.15;4.63;;;13.30;99.90;;;;;;5034720;28;20056;-60
2023/05/24 05:44:11;;;;;;;13.13;4.93;;;13.30;99.90;;;;;;5034556;28;20396;-60
2023/05/24 05:46:38;;;;;;;15.38;4.85;;;13.30;99.90;;;;;;5034458;28;20037;-59
2023/05/24 05:49:05;;;;;;;13.27;5.18;;;13.40;99.90;;;;;;5034590;28;20514;-59
2023/05/24 05:51:32;;;;;;;14.00;4.75;;;13.40;99.90;;;;;;5034158;28;20172;-61
2023/05/24 05:53:59;;;;;;;12.73;5.05;;;13.40;99.90;;;;;;5034529;28;20124;-60
2023/05/24 05:56:26;;;;;;;18.00;5.60;;;13.40;99.90;;;;;;5034415;28;20041;-60
2023/05/24 05:58:53;;;;;;;17.40;5.45;;;13.40;99.90;;;;;;5034169;28;20041;-60
2023/05/24 06:01:20;;;;;;;14.63;5.32;;;13.30;99.90;;;;;;5033803;28;20076;-60
2023/05/24 06:03:46;;;;;;;13.27;5.47;;;13.30;99.90;;;;;;5034089;28;20419;-60
2023/05/24 06:06:13;;;;;;;14.68;5.63;;;13.20;99.90;;;;;;5033635;28;20117;-60
2023/05/24 06:08:40;;;;;;;14.60;5.50;;;13.20;99.90;;;;;;5033677;28;20037;-60
2023/05/24 06:11:07;;;;;;;16.30;5.32;;;13.20;99.90;;;;;;5032559;28;20042;-60
2023/05/24 06:13:34;;;;;;;13.95;5.53;;;13.10;99.90;;;;;;5038609;28;20033;-60
2023/05/24 06:16:01;;;;;;;14.95;5.95;;;13.10;99.90;;;;;;5036540;28;20057;-60
2023/05/24 06:18:29;;;;;;;14.15;5.32;;;13.10;99.90;;;;;;5028519;28;20136;-60
2023/05/24 06:20:57;;;;;;;16.98;5.70;;;13.10;99.90;;;;;;5032218;28;20049;-60
2023/05/24 06:23:24;;;;;;;15.25;5.28;;;13.10;99.90;;;;;;5032587;28;20049;-60
2023/05/24 06:25:50;;;;;;;15.70;6.20;;;13.10;99.90;;;;;;5032781;28;20116;-59
2023/05/24 06:28:17;;;;;;;19.20;5.93;;;13.00;99.90;;;;;;5032698;28;20033;-60
2023/05/24 06:30:44;;;;;;;20.38;6.25;;;13.00;99.90;;;;;;5032943;28;20045;-60
2023/05/24 06:33:11;;;;;;;18.27;6.40;;;13.00;99.90;;;;;;5033082;28;20056;-60
2023/05/24 06:35:38;;;;;;;16.45;6.20;;;12.90;99.90;;;;;;5033319;28;20038;-60
2023/05/24 06:38:05;;;;;;;21.33;6.10;;;12.90;99.90;;;;;;5037411;28;20049;-60
2023/05/24 06:40:32;;;;;;;18.55;6.28;;;12.90;99.90;;;;;;5032119;28;20171;-59
2023/05/24 06:42:59;;;;;;;19.33;6.45;;;12.90;99.90;;;;;;5032692;28;20381;-59
2023/05/24 06:45:26;;;;;;;20.88;6.70;;;12.80;99.90;;;;;;5032574;28;20438;-60
2023/05/24 06:47:53;;;;;;;21.42;6.93;;;12.80;99.90;;;;;;5031384;28;20049;-60
2023/05/24 06:50:19;;;;;;;22.33;6.88;;;12.90;99.90;;;;;;5032420;28;20494;-61
2023/05/24 06:52:46;;;;;;;20.17;7.18;;;13.00;99.90;;;;;;5031312;28;20412;-61
2023/05/24 06:55:13;;;;;;;15.70;6.20;;;13.00;99.90;;;;;;5032706;28;20476;-60
2023/05/24 06:57:40;;;;;;;20.25;6.53;;;13.00;99.90;;;;;;5032455;28;20045;-60
2023/05/24 07:00:11;;;;;;;16.00;6.50;;;13.10;99.90;;;;;;5031094;28;20403;-60
2023/05/24 07:02:38;;;;;;;26.15;6.60;;;13.10;99.90;;;;;;5032606;28;20045;-60
2023/05/24 07:05:05;;;;;;;21.83;7.25;;;13.20;99.90;;;;;;5032494;28;20435;-60
2023/05/24 07:07:32;;;;;;;18.95;6.47;;;13.20;99.90;;;;;;5034238;28;20037;-60
2023/05/24 07:09:59;;;;;;;20.55;7.13;;;13.20;99.90;;;;;;5032721;28;20045;-60
2023/05/24 07:12:26;;;;;;;16.02;5.95;;;13.30;99.90;;;;;;5032525;28;20116;-60
2023/05/24 07:14:54;;;;;;;21.77;6.20;;;13.30;99.90;;;;;;5032415;28;20506;-61
2023/05/24 07:17:21;;;;;;;18.20;6.10;;;13.30;99.90;;;;;;5032193;28;20408;-60
2023/05/24 07:19:48;;;;;;;18.00;5.65;;;13.30;99.90;;;;;;5032105;28;20072;-59
2023/05/24 07:22:15;;;;;;;18.92;5.47;;;13.30;99.90;;;;;;5033242;28;20045;-60
2023/05/24 07:24:42;;;;;;;15.35;5.35;;;13.40;99.90;;;;;;5036106;28;20060;-59
2023/05/24 07:27:09;;;;;;;27.70;6.63;;;13.40;99.90;;;;;;5035429;28;20377;-60
2023/05/24 07:29:36;;;;;;;15.88;5.82;;;13.40;99.90;;;;;;5035806;28;20042;-61
2023/05/24 07:32:03;;;;;;;13.50;5.72;;;13.50;99.90;;;;;;5036063;28;20116;-60
2023/05/24 07:34:30;;;;;;;18.73;6.70;;;13.50;99.90;;;;;;5036030;28;20099;-60
2023/05/24 07:36:59;;;;;;;21.05;6.30;;;13.50;99.90;;;;;;5040157;28;20042;-60
2023/05/24 07:39:26;;;;;;;16.05;6.28;;;13.60;99.90;;;;;;5035785;28;20122;-60
2023/05/24 07:41:53;;;;;;;17.70;6.15;;;13.60;99.90;;;;;;5035775;28;20052;-60
2023/05/24 07:44:19;;;;;;;17.65;6.03;;;13.60;99.90;;;;;;5035839;28;20045;-60
2023/05/24 07:46:46;;;;;;;15.52;5.53;;;13.70;99.90;;;;;;5035254;28;20072;-61
2023/05/24 07:49:13;;;;;;;21.02;6.75;;;13.70;99.70;;;;;;5035565;28;20121;-60
2023/05/24 07:51:40;;;;;;;13.88;6.05;;;13.80;99.60;;;;;;5035743;28;20447;-60
2023/05/24 07:54:06;;;;;;;16.33;5.97;;;13.70;99.60;;;;;;5035313;28;20038;-60
2023/05/24 07:56:33;;;;;;;17.13;5.97;;;13.70;99.90;;;;;;5034359;28;20041;-60
2023/05/24 07:59:03;;;;;;;18.92;5.72;;;13.90;99.80;;;;;;5035428;28;20045;-58
2023/05/24 08:01:30;;;;;;;17.95;5.97;;;14.00;99.70;;;;;;5033576;28;20041;-58
2023/05/24 08:03:57;;;;;;;18.63;5.38;;;14.00;99.60;;;;;;5034657;28;20049;-58
2023/05/24 08:06:24;;;;;;;16.83;5.45;;;14.00;99.40;;;;;;5035305;28;20488;-59
2023/05/24 08:08:52;;;;;;;14.38;5.45;;;14.10;99.40;;;;;;5031416;28;20116;-60
2023/05/24 08:11:18;;;;;;;23.73;6.60;;;14.10;99.50;;;;;;5035025;28;20045;-58
2023/05/24 08:13:45;;;;;;;16.05;5.13;;;14.20;99.40;;;;;;5034324;28;20663;-56
2023/05/24 08:16:12;;;;;;;15.63;4.90;;;14.10;99.00;;;;;;5025050;28;20137;-60
2023/05/24 08:18:39;;;;;;;20.17;5.80;;;14.20;99.70;;;;;;5025348;28;20111;-59
2023/05/24 08:21:07;;;;;;;16.90;5.93;;;14.30;99.60;;;;;;5028403;28;20061;-59
2023/05/24 08:23:35;;;;;;;18.02;5.53;;;14.30;99.50;;;;;;5028713;28;20037;-60
2023/05/24 08:26:01;;;;;;;13.73;5.50;;;14.40;99.30;;;;;;5028665;28;20470;-59
2023/05/24 08:28:28;;;;;;;17.92;6.00;;;14.50;98.70;;;;;;5028655;28;20465;-59
2023/05/24 08:30:56;;;;;;;19.85;5.43;;;14.50;98.40;;;;;;5034952;28;20042;-59
2023/05/24 08:33:23;;;;;;;15.77;5.45;;;14.50;98.30;;;;;;5028176;28;20484;-59
2023/05/24 08:35:50;;;;;;;15.07;4.90;;;14.60;98.20;;;;;;5037506;28;20484;-59
2023/05/24 08:38:17;;;;;;;23.02;5.85;;;14.60;98.00;;;;;;5034473;28;20030;-59
2023/05/24 08:40:44;;;;;;;12.82;5.25;;;14.70;98.50;;;;;;5034566;28;20459;-60
2023/05/24 08:43:11;;;;;;;14.48;5.07;;;14.70;97.80;;;;;;5034520;28;20041;-57
2023/05/24 08:45:38;;;;;;;13.35;4.97;;;14.80;98.20;;;;;;5034585;28;20037;-59
2023/05/24 08:48:05;;;;;;;18.95;5.43;;;14.80;97.70;;;;;;5034696;28;20128;-60
2023/05/24 08:50:33;;;;;;;22.02;6.07;;;14.90;98.20;;;;;;5034475;28;20045;-58
2023/05/24 08:53:02;;;;;;;16.67;5.60;;;15.00;98.50;;;;;;5033551;28;20092;-59
2023/05/24 08:55:29;;;;;;;20.30;5.65;;;15.10;98.50;;;;;;5034173;28;20492;-60
2023/05/24 08:57:58;;;;;;;18.15;5.30;;;15.10;98.30;;;;;;5028138;28;20380;-58
2023/05/24 09:00:25;;;;;;;13.80;5.43;;;15.20;98.20;;;;;;5028037;28;20075;-60
2023/05/24 09:02:52;;;;;;;17.25;5.38;;;15.30;97.40;;;;;;5032961;28;20038;-59
2023/05/24 09:05:20;;;;;;;12.25;4.65;;;15.30;96.80;;;;;;5033531;28;20065;-59
2023/05/24 09:07:47;;;;;;;15.15;5.90;;;15.30;96.90;;;;;;5038462;28;20468;-59
2023/05/24 09:10:14;;;;;;;15.93;5.53;;;15.40;97.00;;;;;;5034069;28;20037;-59
2023/05/24 09:12:41;;;;;;;12.65;5.00;;;15.40;97.20;;;;;;5033892;28;20045;-58
2023/05/24 09:15:08;;;;;;;16.27;5.00;;;15.40;97.20;;;;;;5034166;28;20041;-60
2023/05/24 09:17:35;;;;;;;17.25;5.35;;;15.50;97.10;;;;;;5033964;28;20447;-60
2023/05/24 09:20:05;;;;;;;16.70;5.78;;;15.60;97.00;;;;;;5033643;28;20053;-58
2023/05/24 09:22:33;;;;;;;20.27;5.97;;;15.60;97.20;;;;;;5027337;28;20052;-60
2023/05/24 09:25:04;;;;;;;15.43;5.60;;;15.60;96.90;;;;;;5033783;28;20052;-60
2023/05/24 09:27:31;;;;;;;16.42;4.80;;;15.60;97.10;;;;;;5032568;28;20033;-58
2023/05/24 09:29:57;;;;;;;14.10;5.20;;;15.60;96.90;;;;;;5033945;28;20038;-61
2023/05/24 09:32:24;;;;;;;24.90;5.80;;;15.70;96.90;;;;;;5033685;28;20073;-60
2023/05/24 09:34:52;;;;;;;18.00;5.18;;;15.80;96.20;;;;;;5033867;28;20484;-60
2023/05/24 09:37:20;;;;;;;21.35;5.90;;;15.70;96.20;;;;;;5034720;28;20041;-60
2023/05/24 09:39:52;;;;;;;16.25;6.25;;;15.70;96.40;;;;;;5033632;28;20052;-58
2023/05/24 09:42:22;;;;;;;16.95;5.95;;;15.80;96.60;;;;;;5033502;28;20077;-58
2023/05/24 09:44:51;;;;;;;17.42;5.05;;;15.80;97.00;;;;;;5033034;28;20046;-59
2023/05/24 09:47:17;;;;;;;14.15;5.10;;;15.90;96.90;;;;;;5034103;28;20091;-59
2023/05/24 09:49:45;;;;;;;14.00;4.70;;;15.90;96.90;;;;;;5033595;28;20048;-60
2023/05/24 09:52:15;;;;;;;15.38;5.60;;;16.00;96.50;;;;;;5033675;28;20502;-59
2023/05/24 09:54:42;;;;;;;15.20;4.97;;;16.10;95.60;;;;;;5033638;28;20041;-59
2023/05/24 09:57:10;;;;;;;13.15;5.00;;;16.20;95.60;;;;;;5033567;28;20049;-60
2023/05/24 09:59:36;;;;;;;13.98;4.72;;;16.20;95.10;;;;;;5032977;28;20480;-60
2023/05/24 10:02:03;;;;;;;13.88;5.05;;;16.30;95.00;;;;;;5033437;28;20472;-58
2023/05/24 10:04:30;;;;;;;14.57;4.90;;;16.40;94.40;;;;;;5033086;28;20053;-60
2023/05/24 10:06:57;;;;;;;15.18;4.63;;;16.50;95.30;;;;;;5036642;28;20044;-60
2023/05/24 10:09:23;;;;;;;14.25;4.50;;;16.50;94.60;;;;;;5033318;28;20060;-60
2023/05/24 10:11:50;;;;;;;14.13;4.13;;;16.60;94.00;;;;;;5032988;28;20037;-61
2023/05/24 10:14:17;;;;;;;11.68;4.55;;;16.70;94.40;;;;;;5033146;28;20392;-60
2023/05/24 10:16:44;;;;;;;14.63;4.53;;;16.70;93.60;;;;;;5033075;28;20136;-59
2023/05/24 10:19:11;;;;;;;14.73;4.45;;;16.70;93.80;;;;;;5032566;28;20128;-60
2023/05/24 10:21:38;;;;;;;16.60;4.93;;;16.80;94.60;;;;;;5033138;28;20037;-59
2023/05/24 10:24:05;;;;;;;13.80;5.05;;;16.80;93.60;;;;;;5033090;28;20041;-59
2023/05/24 10:26:35;;;;;;;10.68;4.03;;;16.70;93.60;;;;;;5032764;28;20045;-59
2023/05/24 10:29:01;;;;;;;13.18;3.88;;;16.80;92.90;;;;;;5032739;28;20041;-59
2023/05/24 10:31:28;;;;;;;14.85;4.78;;;16.80;92.80;;;;;;5032761;28;20072;-59
2023/05/24 10:33:55;;;;;;;17.20;4.75;;;16.90;94.10;;;;;;5032853;28;20111;-58
2023/05/24 10:36:33;;;;;;;12.88;4.75;;;17.00;94.10;;;;;;5039099;28;20140;-60
2023/05/24 10:39:00;;;;;;;14.73;5.13;;;16.90;94.30;;;;;;5033126;28;20056;-59
2023/05/24 10:41:27;;;;;;;13.43;4.47;;;17.00;94.60;;;;;;5033120;28;20034;-59
2023/05/24 10:43:55;;;;;;;18.13;5.15;;;17.00;94.30;;;;;;5034527;28;20037;-59
2023/05/24 10:46:35;;;;;;;15.00;4.53;;;17.00;94.20;;;;;;5032884;28;20411;-59
2023/05/24 10:49:04;;;;;;;11.63;4.22;;;17.10;94.30;;;;;;5032930;28;20534;-59
2023/05/24 10:51:31;;;;;;;15.15;4.07;;;17.10;92.90;;;;;;5035723;28;20042;-60
2023/05/24 10:53:58;;;;;;;11.75;4.53;;;17.20;93.50;;;;;;5032812;28;20092;-59
2023/05/24 10:56:25;;;;;;;10.70;4.20;;;17.30;92.00;;;;;;5038113;28;20504;-60
2023/05/24 10:58:52;;;;;;;12.50;4.47;;;17.20;92.80;;;;;;5036814;28;20041;-60
2023/05/24 11:01:19;;;;;;;13.77;5.05;;;17.20;93.40;;;;;;5042585;28;20041;-58
2023/05/24 11:03:46;;;;;;;18.05;4.88;;;17.20;92.90;;;;;;5036929;28;20045;-59
2023/05/24 11:06:13;;;;;;;12.00;4.18;;;17.30;93.00;;;;;;5036840;28;20056;-59
2023/05/24 11:08:42;;;;;;;13.20;4.65;;;17.30;92.00;;;;;;5036759;28;20044;-60
2023/05/24 11:11:09;;;;;;;11.68;4.45;;;17.30;92.70;;;;;;5037969;28;20045;-61
2023/05/24 11:13:39;;;;;;;15.25;5.20;;;17.50;93.10;;;;;;5039437;28;20034;-59
2023/05/24 11:16:05;;;;;;;13.48;5.28;;;17.50;92.90;;;;;;5036299;28;20438;-59
2023/05/24 11:18:37;;;;;;;16.63;4.95;;;17.60;93.30;;;;;;5039298;28;20053;-61
2023/05/24 11:21:04;;;;;;;14.43;4.60;;;17.50;93.00;;;;;;5036061;28;20095;-59
2023/05/24 11:23:30;;;;;;;13.48;4.80;;;17.60;92.70;;;;;;5038901;28;20048;-59
2023/05/24 11:25:57;;;;;;;11.05;4.68;;;17.60;92.90;;;;;;5036339;28;20041;-60
2023/05/24 11:28:24;;;;;;;10.38;4.18;;;17.70;91.70;;;;;;5044027;28;20041;-58
2023/05/24 11:30:51;;;;;;;14.30;4.35;;;18.00;92.20;;;;;;5036222;28;20065;-60
2023/05/24 11:33:18;;;;;;;12.02;4.65;;;18.10;92.50;;;;;;5040058;28;20480;-60
2023/05/24 11:35:45;;;;;;;15.45;4.95;;;18.10;92.80;;;;;;5036050;28;20083;-59
2023/05/24 11:38:12;;;;;;;15.10;4.70;;;18.00;92.60;;;;;;5035752;28;20037;-60
2023/05/24 11:40:43;;;;;;;13.23;4.60;;;17.90;92.70;;;;;;5036087;28;20068;-61
2023/05/24 11:43:10;;;;;;;11.45;4.20;;;18.10;92.50;;;;;;5037297;28;20041;-60
2023/05/24 11:45:37;;;;;;;13.02;4.05;;;18.10;91.70;;;;;;5039400;28;20034;-59
2023/05/24 11:48:05;;;;;;;13.05;4.10;;;18.20;92.10;;;;;;5035950;28;20447;-60
2023/05/24 11:50:32;;;;;;;15.40;5.03;;;18.40;91.70;;;;;;5035737;28;20049;-60
2023/05/24 11:53:14;;;;;;;12.85;4.43;;;18.50;91.80;;;;;;5035973;28;20041;-61
2023/05/24 11:55:41;;;;;;;13.90;5.05;;;18.60;92.10;;;;;;5035682;28;20049;-60
2023/05/24 11:58:08;;;;;;;11.18;4.82;;;18.50;91.60;;;;;;5035815;28;20400;-59
2023/05/24 12:00:35;;;;;;;12.55;4.40;;;18.40;92.00;;;;;;5035238;28;20484;-60
2023/05/24 12:03:06;;;;;;;14.88;5.20;;;18.40;92.00;;;;;;5035004;28;20069;-59
2023/05/24 12:05:33;;;;;;;14.30;4.53;;;18.50;92.00;;;;;;5037040;28;20080;-60
2023/05/24 12:08:00;;;;;;;13.35;4.88;;;18.50;92.10;;;;;;5034530;28;20049;-60
2023/05/24 12:10:27;;;;;;;15.98;4.50;;;18.60;91.80;;;;;;5035297;28;20049;-60
2023/05/24 12:12:53;;;;;;;10.50;4.15;;;18.60;92.20;;;;;;5034825;28;20496;-60
2023/05/24 12:15:21;;;;;;;15.75;4.90;;;18.70;91.80;;;;;;5034982;28;20041;-60
2023/05/24 12:17:51;;;;;;;13.90;4.63;;;18.70;91.90;;;;;;5035019;28;20052;-60
2023/05/24 12:20:18;;;;;;;13.55;4.82;;;18.60;91.70;;;;;;5034841;28;20057;-60
2023/05/24 12:22:45;;;;;;;12.07;4.22;;;18.60;91.10;;;;;;5034939;28;20065;-60
2023/05/24 12:25:12;;;;;;;15.65;4.68;;;18.70;91.90;;;;;;5035050;28;20132;-60
2023/05/24 12:27:42;;;;;;;15.30;4.57;;;18.70;91.90;;;;;;5034808;28;20037;-60
2023/05/24 12:30:12;;;;;;;13.52;4.72;;;18.90;92.30;;;;;;5031755;28;20088;-60
2023/05/24 12:32:39;;;;;;;10.35;4.85;;;18.90;92.00;;;;;;5034722;28;20045;-60
2023/05/24 12:35:06;;;;;;;12.05;4.35;;;18.90;91.70;;;;;;5034839;28;20042;-59
2023/05/24 12:37:33;;;;;;;12.95;4.68;;;19.10;92.20;;;;;;5034469;28;20041;-60
2023/05/24 12:40:00;;;;;;;12.55;4.53;;;19.10;91.90;;;;;;5034746;28;20100;-59